createdAt,value
2023-11-30T00:00:29.925Z,97468.97
2023-11-30T00:01:33.194Z,97473.94
2023-11-30T00:02:35.373Z,97458.56
2023-11-30T00:03:38.600Z,97466.94
2023-11-30T00:04:40.906Z,97465.25
2023-11-30T00:05:44.180Z,97467.81
2023-11-30T00:06:46.277Z,97465.16
2023-11-30T00:07:48.404Z,97473.56
2023-11-30T00:08:51.938Z,97473.44
2023-11-30T00:09:54.059Z,97469.97
2023-11-30T00:10:58.457Z,97476.72
2023-11-30T00:12:00.737Z,97481.00
2023-11-30T00:13:03.032Z,97480.19
2023-11-30T00:14:06.396Z,97475.06
2023-11-30T00:15:09.388Z,97476.81
2023-11-30T00:16:12.909Z,97471.69
2023-11-30T00:17:15.216Z,97479.28
2023-11-30T00:18:17.455Z,97477.50
2023-11-30T00:19:20.742Z,97483.25
2023-11-30T00:20:22.885Z,97473.72
2023-11-30T00:21:26.110Z,97478.69
2023-11-30T00:22:28.268Z,97486.09
2023-11-30T00:23:33.368Z,97480.78
2023-11-30T00:24:35.612Z,97483.19
2023-11-30T00:25:39.001Z,97477.09
2023-11-30T00:26:43.720Z,97466.75
2023-11-30T00:27:47.185Z,97481.94
2023-11-30T00:28:49.294Z,97479.28
2023-11-30T00:29:52.558Z,97468.16
2023-11-30T00:30:54.702Z,97474.03
2023-11-30T00:31:56.759Z,97469.75
2023-11-30T00:32:59.997Z,97467.22
2023-11-30T00:34:02.422Z,97460.19
2023-11-30T00:35:06.024Z,97466.06
2023-11-30T00:36:09.160Z,97468.47
2023-11-30T00:37:12.605Z,97460.75
2023-11-30T00:38:14.688Z,97461.38
2023-11-30T00:39:17.209Z,97462.97
2023-11-30T00:40:20.504Z,97456.88
2023-11-30T00:41:22.839Z,97462.75
2023-11-30T00:42:27.732Z,97464.22
2023-11-30T00:43:29.942Z,97466.72
2023-11-30T00:44:33.140Z,97466.53
2023-11-30T00:45:35.400Z,97463.94
2023-11-30T00:46:38.913Z,97466.31
2023-11-30T00:47:42.062Z,97459.47
2023-11-30T00:48:44.348Z,97462.78
2023-11-30T00:49:47.610Z,97465.25
2023-11-30T00:50:49.736Z,97462.63
2023-11-30T00:51:51.820Z,97463.44
2023-11-30T00:52:54.861Z,97459.09
2023-11-30T00:53:57.153Z,97459.91
2023-11-30T00:55:00.294Z,97457.38
2023-11-30T00:56:02.507Z,97464.13
2023-11-30T00:57:06.204Z,97460.75
2023-11-30T00:58:10.240Z,97459.00
2023-11-30T00:59:12.389Z,97455.53
2023-11-30T01:00:16.238Z,97458.19
2023-11-30T01:01:18.518Z,97460.84
2023-11-30T01:02:21.625Z,97460.00
2023-11-30T01:03:23.982Z,97460.00
2023-11-30T01:04:27.190Z,97465.13
2023-11-30T01:05:29.400Z,97458.19
2023-11-30T01:06:32.707Z,97458.19
2023-11-30T01:07:34.819Z,97462.38
2023-11-30T01:08:38.834Z,97461.47
2023-11-30T01:09:40.894Z,97452.94
2023-11-30T01:10:45.172Z,97457.19
2023-11-30T01:11:48.389Z,97449.59
2023-11-30T01:12:51.886Z,97446.31
2023-11-30T01:13:55.345Z,97443.75
2023-11-30T01:14:58.731Z,97444.69
2023-11-30T01:16:00.953Z,97445.56
2023-11-30T01:17:04.149Z,97439.72
2023-11-30T01:18:06.442Z,97444.97
2023-11-30T01:19:08.941Z,97443.41
2023-11-30T01:20:12.967Z,97445.28
2023-11-30T01:21:15.172Z,97442.97
2023-11-30T01:22:19.257Z,97439.00
2023-11-30T01:23:22.099Z,97445.16
2023-11-30T01:24:25.628Z,97439.44
2023-11-30T01:25:27.820Z,97449.09
2023-11-30T01:26:31.056Z,97434.84
2023-11-30T01:27:33.556Z,97432.59
2023-11-30T01:28:36.732Z,97437.94
2023-11-30T01:29:40.201Z,97437.31
2023-11-30T01:30:42.295Z,97428.97
2023-11-30T01:31:45.717Z,97436.88
2023-11-30T01:32:48.367Z,97431.06
2023-11-30T01:33:51.842Z,97433.88
2023-11-30T01:34:54.780Z,97426.44
2023-11-30T01:35:57.176Z,97429.88
2023-11-30T01:37:00.377Z,97424.94
2023-11-30T01:38:03.290Z,97428.44
2023-11-30T01:39:06.422Z,97431.09
2023-11-30T01:40:10.823Z,97432.91
2023-11-30T01:41:14.076Z,97427.03
2023-11-30T01:42:16.737Z,97428.84
2023-11-30T01:43:20.875Z,97436.56
2023-11-30T01:44:22.950Z,97442.50
2023-11-30T01:45:27.509Z,97438.28
2023-11-30T01:46:29.970Z,97434.97
2023-11-30T01:47:33.348Z,97435.88
2023-11-30T01:48:35.735Z,97435.06
2023-11-30T01:49:39.023Z,97434.16
2023-11-30T01:50:42.594Z,97427.31
2023-11-30T01:51:45.757Z,97434.91
2023-11-30T01:52:48.358Z,97439.13
2023-11-30T01:53:51.545Z,97433.03
2023-11-30T01:54:54.594Z,97431.31
2023-11-30T01:55:57.934Z,97428.66
2023-11-30T01:57:00.284Z,97437.09
2023-11-30T01:58:04.736Z,97433.63
2023-11-30T01:59:08.482Z,97425.91
2023-11-30T02:00:12.759Z,97431.78
2023-11-30T02:01:17.016Z,97432.81
2023-11-30T02:02:20.762Z,97432.13
2023-11-30T02:03:26.220Z,97438.97
2023-11-30T02:04:31.191Z,97428.97
2023-11-30T02:05:33.626Z,97433.47
2023-11-30T02:06:36.753Z,97429.41
2023-11-30T02:07:39.026Z,97428.66
2023-11-30T02:08:42.159Z,97435.59
2023-11-30T02:09:44.259Z,97430.69
2023-11-30T02:10:47.360Z,97432.47
2023-11-30T02:11:51.450Z,97425.81
2023-11-30T02:12:53.640Z,97428.56
2023-11-30T02:13:55.837Z,97427.88
2023-11-30T02:15:00.369Z,97426.44
2023-11-30T02:16:02.891Z,97425.78
2023-11-30T02:17:07.668Z,97428.69
2023-11-30T02:18:09.877Z,97433.25
2023-11-30T02:19:13.074Z,97434.41
2023-11-30T02:20:15.371Z,97427.03
2023-11-30T02:21:19.414Z,97425.69
2023-11-30T02:22:22.970Z,97424.28
2023-11-30T02:23:26.061Z,97422.91
2023-11-30T02:24:28.377Z,97425.75
2023-11-30T02:25:31.465Z,97427.66
2023-11-30T02:26:33.686Z,97420.31
2023-11-30T02:27:36.793Z,97416.22
2023-11-30T02:28:38.876Z,97413.06
2023-11-30T02:29:42.117Z,97405.69
2023-11-30T02:30:46.775Z,97414.34
2023-11-30T02:31:49.931Z,97417.09
2023-11-30T02:32:52.352Z,97415.56
2023-11-30T02:33:55.825Z,97420.81
2023-11-30T02:34:57.996Z,97422.66
2023-11-30T02:36:00.090Z,97413.56
2023-11-30T02:37:03.263Z,97412.09
2023-11-30T02:38:06.696Z,97419.94
2023-11-30T02:39:10.180Z,97416.75
2023-11-30T02:40:13.051Z,97417.84
2023-11-30T02:41:17.979Z,97416.31
2023-11-30T02:42:20.425Z,97426.63
2023-11-30T02:43:23.583Z,97425.94
2023-11-30T02:44:25.648Z,97419.22
2023-11-30T02:45:29.088Z,97415.94
2023-11-30T02:46:31.267Z,97427.91
2023-11-30T02:47:34.400Z,97418.59
2023-11-30T02:48:37.630Z,97412.63
2023-11-30T02:49:40.809Z,97418.56
2023-11-30T02:50:42.934Z,97416.00
2023-11-30T02:51:46.093Z,97416.84
2023-11-30T02:52:49.337Z,97423.50
2023-11-30T02:53:53.849Z,97414.16
2023-11-30T02:54:55.913Z,97416.84
2023-11-30T02:56:01.056Z,97413.50
2023-11-30T02:57:04.237Z,97411.84
2023-11-30T02:58:07.313Z,97421.28
2023-11-30T02:59:09.858Z,97418.75
2023-11-30T03:00:12.651Z,97406.91
2023-11-30T03:01:15.824Z,97415.41
2023-11-30T03:02:18.063Z,97413.75
2023-11-30T03:03:22.170Z,97413.00
2023-11-30T03:04:24.287Z,97418.09
2023-11-30T03:05:27.542Z,97410.50
2023-11-30T03:06:29.688Z,97424.09
2023-11-30T03:07:32.987Z,97412.19
2023-11-30T03:08:35.107Z,97400.28
2023-11-30T03:09:38.532Z,97412.94
2023-11-30T03:10:41.661Z,97412.00
2023-11-30T03:11:43.809Z,97406.69
2023-11-30T03:12:46.928Z,97408.31
2023-11-30T03:13:49.059Z,97409.84
2023-11-30T03:14:52.283Z,97408.81
2023-11-30T03:15:54.468Z,97408.69
2023-11-30T03:16:58.657Z,97402.56
2023-11-30T03:18:00.878Z,97399.84
2023-11-30T03:19:17.245Z,97399.56
2023-11-30T03:20:19.911Z,97398.50
2023-11-30T03:21:23.115Z,97409.22
2023-11-30T03:22:25.940Z,97403.91
2023-11-30T03:23:29.150Z,97399.34
2023-11-30T03:24:31.258Z,97404.16
2023-11-30T03:25:37.107Z,97406.44
2023-11-30T03:26:39.421Z,97412.94
2023-11-30T03:27:42.711Z,97412.78
2023-11-30T03:28:45.104Z,97412.50
2023-11-30T03:29:48.096Z,97410.59
2023-11-30T03:30:50.236Z,97407.72
2023-11-30T03:31:53.430Z,97414.16
2023-11-30T03:32:55.967Z,97407.97
2023-11-30T03:33:58.117Z,97409.41
2023-11-30T03:35:01.532Z,97408.28
2023-11-30T03:36:04.530Z,97406.34
2023-11-30T03:37:07.780Z,97408.66
2023-11-30T03:38:09.913Z,97405.84
2023-11-30T03:39:13.108Z,97412.41
2023-11-30T03:40:15.242Z,97415.59
2023-11-30T03:41:19.630Z,97412.88
2023-11-30T03:42:21.735Z,97410.94
2023-11-30T03:43:24.966Z,97419.28
2023-11-30T03:44:27.157Z,97415.69
2023-11-30T03:45:35.581Z,97413.78
2023-11-30T03:46:38.600Z,97414.41
2023-11-30T03:47:41.690Z,97409.91
2023-11-30T03:48:44.926Z,97407.22
2023-11-30T03:49:48.068Z,97411.41
2023-11-30T03:50:50.295Z,97400.25
2023-11-30T03:51:53.455Z,97403.41
2023-11-30T03:52:55.762Z,97408.25
2023-11-30T03:53:58.939Z,97408.13
2023-11-30T03:55:00.972Z,97401.19
2023-11-30T03:56:04.183Z,97403.53
2023-11-30T03:57:07.682Z,97410.13
2023-11-30T03:58:10.772Z,97412.59
2023-11-30T03:59:12.895Z,97413.28
2023-11-30T04:00:17.670Z,97406.31
2023-11-30T04:01:24.042Z,97401.88
2023-11-30T04:02:27.292Z,97394.88
2023-11-30T04:03:30.161Z,97394.75
2023-11-30T04:04:33.666Z,97396.31
2023-11-30T04:05:35.823Z,97397.91
2023-11-30T04:06:39.027Z,97392.69
2023-11-30T04:07:41.325Z,97392.56
2023-11-30T04:08:44.441Z,97396.66
2023-11-30T04:09:47.755Z,97393.97
2023-11-30T04:10:50.908Z,97384.41
2023-11-30T04:11:53.120Z,97384.19
2023-11-30T04:12:57.606Z,97384.94
2023-11-30T04:14:06.241Z,97388.13
2023-11-30T04:15:10.530Z,97383.84
2023-11-30T04:16:15.506Z,97381.25
2023-11-30T04:17:18.530Z,97386.25
2023-11-30T04:18:22.801Z,97380.09
2023-11-30T04:19:25.942Z,97384.97
2023-11-30T04:20:28.399Z,97388.94
2023-11-30T04:21:32.076Z,97381.09
2023-11-30T04:22:34.437Z,97382.59
2023-11-30T04:23:36.498Z,97380.59
2023-11-30T04:24:39.616Z,97383.84
2023-11-30T04:25:41.766Z,97384.50
2023-11-30T04:26:44.788Z,97384.19
2023-11-30T04:27:46.909Z,97377.91
2023-11-30T04:28:51.306Z,97384.44
2023-11-30T04:29:53.432Z,97379.06
2023-11-30T04:30:58.087Z,97377.09
2023-11-30T04:32:00.300Z,97376.75
2023-11-30T04:33:04.071Z,97381.53
2023-11-30T04:34:07.556Z,97379.53
2023-11-30T04:35:10.600Z,97369.97
2023-11-30T04:36:15.626Z,97374.84
2023-11-30T04:37:17.750Z,97375.41
2023-11-30T04:38:21.229Z,97374.41
2023-11-30T04:39:23.331Z,97375.88
2023-11-30T04:40:26.454Z,97377.44
2023-11-30T04:41:28.577Z,97372.25
2023-11-30T04:42:34.771Z,97369.50
2023-11-30T04:43:38.408Z,97369.44
2023-11-30T04:44:44.020Z,97372.72
2023-11-30T04:45:46.140Z,97371.75
2023-11-30T04:46:49.347Z,97364.88
2023-11-30T04:47:51.520Z,97369.91
2023-11-30T04:48:54.648Z,97362.13
2023-11-30T04:49:56.863Z,97358.66
2023-11-30T04:50:59.903Z,97360.31
2023-11-30T04:52:02.035Z,97362.78
2023-11-30T04:53:05.234Z,97365.25
2023-11-30T04:54:07.366Z,97358.41
2023-11-30T04:55:11.051Z,97362.63
2023-11-30T04:56:13.162Z,97359.16
2023-11-30T04:57:16.668Z,97359.16
2023-11-30T04:58:18.718Z,97363.34
2023-11-30T04:59:21.782Z,97353.03
2023-11-30T05:00:25.216Z,97364.09
2023-11-30T05:01:28.287Z,97356.41
2023-11-30T05:02:30.547Z,97360.63
2023-11-30T05:03:34.055Z,97358.06
2023-11-30T05:04:38.278Z,97360.63
2023-11-30T05:05:41.629Z,97358.06
2023-11-30T05:06:43.646Z,97352.94
2023-11-30T05:07:46.738Z,97357.16
2023-11-30T05:08:49.026Z,97359.72
2023-11-30T05:09:52.133Z,97358.91
2023-11-30T05:10:54.181Z,97354.75
2023-11-30T05:11:57.354Z,97356.50
2023-11-30T05:12:59.539Z,97355.78
2023-11-30T15:54:31.159Z,97169.16
2023-11-30T15:55:35.835Z,97169.16
2023-11-30T15:56:38.207Z,97176.91
2023-11-30T15:57:41.644Z,97176.00
2023-11-30T15:58:43.837Z,97176.81
2023-11-30T15:59:46.935Z,97171.72
2023-11-30T16:00:49.217Z,97175.84
2023-11-30T16:01:52.692Z,97173.28
2023-11-30T16:02:54.924Z,97171.56
2023-11-30T16:03:58.136Z,97169.81
2023-11-30T16:05:00.522Z,97162.91
2023-11-30T16:06:04.155Z,97161.16
2023-11-30T16:07:06.316Z,97162.66
2023-11-30T16:08:09.457Z,97162.50
2023-11-30T16:09:13.289Z,97151.25
2023-11-30T16:10:17.121Z,97152.00
2023-11-30T16:11:20.809Z,97150.00
2023-11-30T16:12:23.939Z,97150.75
2023-11-30T16:13:26.831Z,97151.31
2023-11-30T16:14:28.974Z,97150.97
2023-11-30T16:15:32.132Z,97148.16
2023-11-30T16:16:35.036Z,97147.91
2023-11-30T16:17:38.329Z,97147.72
2023-11-30T16:18:40.592Z,97134.88
2023-11-30T16:19:43.712Z,97150.09
2023-11-30T16:20:45.997Z,97154.31
2023-11-30T16:21:52.179Z,97159.41
2023-11-30T16:22:54.352Z,97158.59
2023-11-30T16:23:57.551Z,97154.31
2023-11-30T16:24:59.756Z,97157.69
2023-11-30T16:26:02.982Z,97155.88
2023-11-30T16:27:06.718Z,97151.59
2023-11-30T16:28:10.389Z,97154.03
2023-11-30T16:29:12.482Z,97165.00
2023-11-30T16:30:15.631Z,97155.69
2023-11-30T16:31:18.427Z,97149.59
2023-11-30T16:32:20.517Z,97144.47
2023-11-30T16:33:25.337Z,97148.69
2023-11-30T16:34:32.134Z,97146.22
2023-11-30T16:35:35.431Z,97139.44
2023-11-30T16:36:37.785Z,97140.28
2023-11-30T16:37:39.946Z,97135.16
2023-11-30T16:38:43.038Z,97131.84
2023-11-30T16:39:47.159Z,97134.41
2023-11-30T16:40:50.303Z,97134.63
2023-11-30T16:41:52.478Z,97137.16
2023-11-30T16:42:57.371Z,97130.38
2023-11-30T16:43:59.591Z,97130.38
2023-11-30T16:45:03.374Z,97123.53
2023-11-30T16:46:07.765Z,97116.72
2023-11-30T16:47:13.611Z,97117.53
2023-11-30T16:48:17.035Z,97115.06
2023-11-30T16:49:20.188Z,97106.56
2023-11-30T16:50:22.283Z,97099.09
2023-11-30T16:51:25.501Z,97098.28
2023-11-30T16:52:27.789Z,97097.53
2023-11-30T16:53:30.927Z,97103.53
2023-11-30T16:54:33.209Z,97105.19
2023-11-30T16:55:36.532Z,97106.81
2023-11-30T16:56:40.668Z,97116.16
2023-11-30T16:57:43.984Z,97116.88
2023-11-30T16:58:47.547Z,97114.22
2023-11-30T16:59:50.681Z,97116.72
2023-11-30T17:00:52.981Z,97124.19
2023-11-30T17:01:56.224Z,97118.97
2023-11-30T17:02:58.511Z,97126.38
2023-11-30T17:04:02.002Z,97117.84
2023-11-30T17:05:05.001Z,97117.63
2023-11-30T17:06:08.551Z,97120.03
2023-11-30T17:07:10.632Z,97121.56
2023-11-30T17:08:13.923Z,97122.31
2023-11-30T17:09:16.124Z,97121.41
2023-11-30T17:10:19.259Z,97115.47
2023-11-30T17:11:21.399Z,97113.84
2023-11-30T17:12:24.541Z,97121.56
2023-11-30T17:13:27.295Z,97119.94
2023-11-30T17:14:31.823Z,97107.31
2023-11-30T17:15:34.346Z,97109.88
2023-11-30T17:16:39.863Z,97103.94
2023-11-30T17:17:46.440Z,97105.59
2023-11-30T17:18:49.601Z,97112.34
2023-11-30T17:19:51.750Z,97115.75
2023-11-30T17:20:55.451Z,97126.06
2023-11-30T17:21:57.649Z,97132.97
2023-11-30T17:23:00.752Z,97126.22
2023-11-30T17:24:04.134Z,97120.47
2023-11-30T17:25:08.095Z,97127.31
2023-11-30T17:26:10.173Z,97124.03
2023-11-30T17:27:13.986Z,97114.72
2023-11-30T17:28:16.114Z,97108.69
2023-11-30T17:29:19.312Z,97097.72
2023-11-30T17:30:23.054Z,97086.06
2023-11-30T17:31:26.254Z,97084.38
2023-11-30T17:32:28.548Z,97088.66
2023-11-30T17:33:31.813Z,97091.16
2023-11-30T17:34:34.364Z,97090.25
2023-11-30T17:35:37.598Z,97085.84
2023-11-30T17:36:39.929Z,97085.69
2023-11-30T17:37:43.348Z,97090.81
2023-11-30T17:38:45.454Z,97086.50
2023-11-30T17:39:48.912Z,97088.97
2023-11-30T17:40:50.969Z,97088.78
2023-11-30T17:41:54.247Z,97080.94
2023-11-30T17:42:56.461Z,97087.50
2023-11-30T17:43:59.591Z,97092.53
2023-11-30T17:45:01.764Z,97086.44
2023-11-30T17:46:09.237Z,97091.34
2023-11-30T17:47:11.496Z,97098.94
2023-11-30T17:48:14.714Z,97101.41
2023-11-30T17:49:21.220Z,97103.84
2023-11-30T17:50:25.472Z,97101.22
2023-11-30T17:51:27.825Z,97101.94
2023-11-30T17:52:31.176Z,97099.28
2023-11-30T17:53:33.353Z,97093.28
2023-11-30T17:54:36.946Z,97097.38
2023-11-30T17:55:39.249Z,97101.59
2023-11-30T17:56:42.442Z,97108.28
2023-11-30T17:57:44.948Z,97104.06
2023-11-30T17:58:48.542Z,97089.53
2023-11-30T17:59:50.838Z,97091.19
2023-11-30T18:00:56.118Z,97087.88
2023-11-30T18:01:59.989Z,97093.09
2023-11-30T18:03:02.313Z,97090.63
2023-11-30T18:04:05.824Z,97092.44
2023-11-30T18:05:09.615Z,97088.34
2023-11-30T18:06:13.159Z,97096.28
2023-11-30T18:07:15.464Z,97092.19
2023-11-30T18:08:17.729Z,97103.41
2023-11-30T18:09:21.119Z,97097.66
2023-11-30T18:10:23.303Z,97102.84
2023-11-30T18:11:26.657Z,97102.13
2023-11-30T18:12:28.912Z,97103.94
2023-11-30T18:13:32.325Z,97104.84
2023-11-30T18:14:34.560Z,97109.16
2023-11-30T18:15:40.081Z,97105.78
2023-11-30T18:16:42.335Z,97100.56
2023-11-30T18:17:47.167Z,97101.31
2023-11-30T18:18:49.650Z,97092.81
2023-11-30T18:19:52.888Z,97093.53
2023-11-30T18:20:55.128Z,97085.88
2023-11-30T18:21:58.790Z,97079.13
2023-11-30T18:23:00.937Z,97078.38
2023-11-30T18:24:04.384Z,97077.56
2023-11-30T18:25:07.258Z,97079.28
2023-11-30T18:26:10.378Z,97072.53
2023-11-30T18:27:12.644Z,97080.22
2023-11-30T18:28:15.795Z,97082.66
2023-11-30T18:29:17.888Z,97085.97
2023-11-30T18:30:21.068Z,97080.88
2023-11-30T18:31:24.197Z,97083.31
2023-11-30T18:32:27.543Z,97081.47
2023-11-30T21:13:00.369Z,97029.19
2023-11-30T21:14:02.675Z,97046.28
2023-11-30T21:15:06.646Z,97042.91
2023-11-30T21:16:09.459Z,97049.78
2023-11-30T21:17:12.649Z,97047.31
2023-11-30T21:18:14.846Z,97053.16
2023-11-30T21:19:18.512Z,97044.56
2023-11-30T21:20:22.148Z,97043.66
2023-11-30T21:21:25.357Z,97023.09
2023-11-30T21:22:27.667Z,97011.22
2023-11-30T21:23:31.054Z,97025.75
2023-11-30T21:24:35.377Z,97018.91
2023-11-30T21:25:38.547Z,97025.75
2023-11-30T21:26:40.698Z,97031.75
2023-11-30T21:27:43.898Z,97030.13
2023-11-30T21:28:47.515Z,97039.53
2023-11-30T21:29:55.233Z,97035.34
2023-11-30T21:30:57.445Z,97032.69
2023-11-30T21:32:00.765Z,97029.13
2023-11-30T21:33:02.985Z,97018.78
2023-11-30T21:34:06.400Z,97024.63
2023-11-30T21:35:09.324Z,97026.38
2023-11-30T21:36:14.537Z,97021.25
2023-11-30T21:37:16.715Z,97018.78
2023-11-30T21:38:19.926Z,97018.78
2023-11-30T21:39:22.232Z,97027.28
2023-11-30T21:40:25.707Z,97033.31
2023-11-30T21:41:27.960Z,97040.19
2023-11-30T21:42:31.179Z,97037.63
2023-11-30T21:43:33.351Z,97030.78
2023-11-30T21:44:40.256Z,97020.44
2023-11-30T21:45:44.014Z,97029.75
2023-11-30T21:46:47.208Z,97029.56
2023-11-30T21:47:49.456Z,97030.28
2023-11-30T21:48:53.165Z,97025.16
2023-11-30T21:49:55.523Z,97031.03
2023-11-30T21:50:58.670Z,97029.19
2023-11-30T21:52:01.304Z,97031.63
2023-11-30T21:53:05.016Z,97031.56
2023-11-30T21:54:07.614Z,97031.63
2023-11-30T21:55:10.951Z,97038.50
2023-11-30T21:56:13.083Z,97035.94
2023-11-30T21:57:16.315Z,97035.03
2023-11-30T21:58:19.696Z,97031.63
2023-11-30T21:59:21.832Z,97036.75
2023-11-30T22:00:26.632Z,97040.16
2023-11-30T22:01:29.083Z,97036.75
2023-11-30T22:02:32.410Z,97037.59
2023-11-30T22:03:34.636Z,97040.97
2023-11-30T22:04:38.040Z,97045.28
2023-11-30T22:05:40.478Z,97040.16
2023-11-30T22:06:43.767Z,97044.34
2023-11-30T22:07:47.677Z,97040.88
2023-11-30T22:08:52.042Z,97046.09
2023-11-30T22:09:55.233Z,97049.47
2023-11-30T22:10:57.781Z,97054.59
2023-11-30T22:12:04.329Z,97041.78
2023-11-30T22:13:06.531Z,97038.31
2023-11-30T22:14:09.683Z,97044.16
2023-11-30T22:15:11.796Z,97041.41
2023-11-30T22:16:23.627Z,97038.56
2023-11-30T22:17:31.617Z,97032.41
2023-11-30T22:18:34.860Z,97041.56
2023-11-30T22:19:37.068Z,97032.88
2023-11-30T22:20:45.320Z,97042.81
2023-11-30T22:21:47.489Z,97035.13
2023-11-30T22:22:50.593Z,97032.56
2023-11-30T22:23:52.833Z,97027.38
2023-11-30T22:24:55.991Z,97023.06
2023-11-30T22:26:03.969Z,97021.31
2023-11-30T22:27:08.138Z,97021.31
2023-11-30T22:28:10.393Z,97029.72
2023-11-30T22:29:13.552Z,97033.84
2023-11-30T22:30:16.002Z,97039.66
2023-11-30T22:31:20.760Z,97036.19
2023-11-30T22:32:22.898Z,97042.97
2023-11-30T22:33:26.282Z,97048.09
2023-11-30T22:34:28.565Z,97049.72
2023-11-30T22:35:30.786Z,97053.22
2023-11-30T22:36:34.090Z,97051.38
2023-11-30T22:37:36.348Z,97042.75
2023-11-30T22:38:45.386Z,97046.13
2023-11-30T22:39:48.485Z,97044.31
2023-11-30T22:40:51.971Z,97035.72
2023-11-30T22:41:55.356Z,97033.84
2023-11-30T22:42:58.604Z,97042.19
2023-11-30T22:44:00.801Z,97046.28
2023-11-30T22:45:04.442Z,97047.81
2023-11-30T22:46:06.837Z,97040.84
2023-11-30T22:47:11.389Z,97043.22
2023-11-30T22:48:13.600Z,97040.56
2023-11-30T22:49:17.452Z,97048.16
2023-11-30T22:50:19.802Z,97044.69
2023-11-30T22:51:23.704Z,97038.63
2023-11-30T22:52:27.033Z,97043.75
2023-11-30T22:53:29.249Z,97051.25
2023-11-30T22:54:33.016Z,97049.41
2023-11-30T22:55:35.438Z,97045.91
2023-11-30T22:56:38.618Z,97045.09
2023-11-30T22:57:40.806Z,97038.34
2023-11-30T22:58:43.144Z,97029.84
2023-11-30T22:59:46.508Z,97035.03
2023-11-30T23:00:49.030Z,97026.44
2023-11-30T23:01:52.380Z,97028.19
2023-11-30T23:02:56.203Z,97037.53
2023-11-30T23:04:00.088Z,97040.16
2023-11-30T23:05:04.326Z,97040.25
2023-11-30T23:06:08.056Z,97034.44
2023-11-30T23:07:10.365Z,97029.31
2023-11-30T23:08:13.593Z,97030.94
2023-11-30T23:09:15.846Z,97025.72
2023-11-30T23:10:20.687Z,97026.53
2023-11-30T23:11:22.856Z,97036.69
2023-11-30T23:12:26.026Z,97040.16
2023-11-30T23:13:28.692Z,97034.31
2023-11-30T23:14:31.900Z,97042.13
2023-11-30T23:15:34.086Z,97029.38
2023-11-30T23:16:38.140Z,97025.94
2023-11-30T23:17:40.413Z,97018.13
2023-11-30T23:18:44.022Z,97008.59
2023-11-30T23:19:47.240Z,97011.16
2023-11-30T23:20:49.642Z,97012.91
2023-11-30T23:21:52.841Z,97012.09
2023-11-30T23:22:54.978Z,97014.66
2023-11-30T23:23:58.200Z,97026.53
2023-11-30T23:25:00.476Z,97040.91
2023-11-30T23:26:03.659Z,97039.16
2023-11-30T23:27:06.014Z,97041.81
2023-11-30T23:28:09.221Z,97043.47
2023-11-30T23:29:11.343Z,97040.78
2023-11-30T23:30:14.895Z,97044.09
2023-11-30T23:31:17.296Z,97036.41
2023-11-30T23:32:20.494Z,97042.25
2023-11-30T23:33:22.628Z,97042.34
2023-11-30T23:34:27.115Z,97038.03
2023-11-30T23:35:29.655Z,97038.13
2023-11-30T23:36:33.194Z,97024.59
2023-11-30T23:37:35.421Z,97028.09
2023-11-30T23:38:38.734Z,97028.91
2023-11-30T23:39:40.889Z,97023.06
2023-11-30T23:40:44.068Z,97023.97
2023-11-30T23:41:46.251Z,97029.09
2023-11-30T23:42:49.424Z,97021.50
2023-11-30T23:43:51.572Z,97024.91
2023-11-30T23:44:54.729Z,97018.03
2023-11-30T23:45:57.044Z,97022.22
2023-11-30T23:46:59.257Z,97014.47
2023-11-30T23:48:02.514Z,97020.28
2023-11-30T23:49:04.789Z,97017.72
2023-11-30T23:50:10.396Z,97022.03
2023-11-30T23:51:12.609Z,97028.91
2023-11-30T23:52:16.385Z,97034.97
2023-11-30T23:53:19.969Z,97040.16
2023-11-30T23:54:23.141Z,97031.66
2023-11-30T23:55:25.353Z,97023.06
2023-11-30T23:56:28.551Z,97020.50
2023-11-30T23:57:31.655Z,97023.78
2023-11-30T23:58:35.038Z,97027.06
2023-11-30T23:59:37.368Z,97031.34
